Time;durP1;ratioP1;P1;durP2;ratioP2;P2;SDS_P1;SDS_P2;PMS_P1;PMS_P2;Temp;Humidity;BMP_temperature;BMP_pressure;BME280_temperature;BME280_humidity;BME280_pressure;Samples;Min_cycle;Max_cycle;Signal;HPM_P1;HPM_P2
2021/12/29 00:00:31;;;;;;;4.35;3.40;;;10.00;99.90;;;;;;5050208;28;20476;-43
2021/12/29 00:03:00;;;;;;;3.72;3.17;;;10.00;99.90;;;;;;5050177;28;20047;-43
2021/12/29 00:05:26;;;;;;;4.03;3.47;;;10.00;99.90;;;;;;5050182;28;20071;-42
2021/12/29 00:07:52;;;;;;;4.43;3.30;;;10.00;99.90;;;;;;5050210;28;20029;-43
2021/12/29 00:10:19;;;;;;;4.70;3.58;;;10.10;99.90;;;;;;5049944;28;20048;-42
2021/12/29 00:12:51;;;;;;;5.65;3.45;;;10.10;99.90;;;;;;5050095;28;20028;-43
2021/12/29 00:15:18;;;;;;;4.95;3.58;;;10.10;99.90;;;;;;5050153;28;20399;-43
2021/12/29 00:17:45;;;;;;;6.22;3.42;;;10.00;99.90;;;;;;5050013;28;20032;-43
2021/12/29 00:20:18;;;;;;;5.20;3.75;;;10.00;99.90;;;;;;5050091;28;20044;-44
2021/12/29 00:22:45;;;;;;;4.30;3.25;;;10.10;99.90;;;;;;5050357;28;20032;-44
2021/12/29 00:25:11;;;;;;;4.75;3.10;;;10.10;99.90;;;;;;5049330;28;20028;-43
2021/12/29 00:27:37;;;;;;;4.38;2.88;;;10.10;99.90;;;;;;5049908;28;20558;-43
2021/12/29 00:30:05;;;;;;;6.65;3.28;;;10.10;99.90;;;;;;5049828;28;20071;-42
2021/12/29 00:32:31;;;;;;;4.50;3.38;;;10.10;99.90;;;;;;5046247;28;20472;-42
2021/12/29 00:34:56;;;;;;;5.03;3.65;;;10.10;99.90;;;;;;5049739;28;20116;-42
2021/12/29 00:37:22;;;;;;;5.45;3.15;;;10.00;99.90;;;;;;5050008;28;20021;-43
2021/12/29 00:39:47;;;;;;;5.75;3.08;;;10.10;99.90;;;;;;5048934;28;20428;-42
2021/12/29 00:42:13;;;;;;;4.10;2.50;;;10.00;99.90;;;;;;5049815;28;20071;-42
2021/12/29 00:44:38;;;;;;;3.40;2.78;;;10.00;99.90;;;;;;5049023;28;20029;-43
2021/12/29 00:47:04;;;;;;;3.80;2.70;;;10.00;99.90;;;;;;5048636;28;20021;-43
2021/12/29 00:49:35;;;;;;;3.53;3.20;;;10.00;99.90;;;;;;5049613;28;20111;-43
2021/12/29 00:52:05;;;;;;;3.80;3.10;;;10.00;99.90;;;;;;5048775;28;20536;-44
2021/12/29 00:54:31;;;;;;;4.82;3.58;;;10.00;99.90;;;;;;5049024;28;20021;-43
2021/12/29 00:56:56;;;;;;;3.47;2.88;;;10.00;99.90;;;;;;5048759;28;20029;-43
2021/12/29 00:59:23;;;;;;;3.67;3.17;;;10.00;99.90;;;;;;5049538;28;20036;-44
2021/12/29 01:01:49;;;;;;;3.92;3.53;;;10.00;99.90;;;;;;5048624;28;20068;-42
2021/12/29 01:04:15;;;;;;;4.70;3.72;;;10.00;99.90;;;;;;5049543;28;20480;-43
2021/12/29 01:06:41;;;;;;;5.20;3.28;;;10.00;99.90;;;;;;5048778;28;20044;-44
2021/12/29 01:09:06;;;;;;;5.53;3.38;;;10.00;99.90;;;;;;5047434;28;20021;-43
2021/12/29 01:11:32;;;;;;;6.40;4.22;;;10.00;99.90;;;;;;5049111;28;20027;-44
2021/12/29 01:13:57;;;;;;;5.93;3.83;;;10.00;99.90;;;;;;5048917;28;20111;-43
2021/12/29 01:19:05;;;;;;;5.53;3.97;;;10.00;99.90;;;;;;5048833;28;20572;-44
2021/12/29 01:21:31;;;;;;;6.28;4.53;;;10.00;99.90;;;;;;5047837;28;20065;-43
2021/12/29 01:23:57;;;;;;;4.40;3.72;;;10.10;99.90;;;;;;5048428;28;20069;-43
2021/12/29 01:26:23;;;;;;;6.68;4.25;;;10.00;99.90;;;;;;5049351;28;20052;-44
2021/12/29 01:28:49;;;;;;;6.90;4.07;;;10.00;99.90;;;;;;5047925;28;20021;-43
2021/12/29 01:31:15;;;;;;;6.68;4.43;;;10.00;99.90;;;;;;5048978;28;20035;-43
2021/12/29 01:33:40;;;;;;;5.50;3.97;;;10.10;99.90;;;;;;5048266;28;20033;-43
2021/12/29 01:36:06;;;;;;;6.82;4.80;;;10.10;99.90;;;;;;5048047;28;20070;-44
2021/12/29 01:38:31;;;;;;;9.02;4.53;;;10.10;99.90;;;;;;5048292;28;20052;-44
2021/12/29 01:40:57;;;;;;;9.63;5.63;;;10.10;99.90;;;;;;5048674;28;20061;-43
2021/12/29 01:43:22;;;;;;;9.23;5.72;;;10.10;99.90;;;;;;5047821;28;20033;-42
2021/12/29 01:45:48;;;;;;;8.35;5.10;;;10.10;99.90;;;;;;5048165;28;20083;-43
2021/12/29 01:48:16;;;;;;;7.60;5.50;;;10.00;99.90;;;;;;5048520;28;20033;-43
2021/12/29 01:50:44;;;;;;;9.15;5.30;;;10.10;99.90;;;;;;5047753;28;20028;-43
2021/12/29 01:53:12;;;;;;;9.63;5.65;;;10.00;99.90;;;;;;5048124;28;20099;-44
2021/12/29 01:55:39;;;;;;;8.10;5.40;;;10.10;99.90;;;;;;5047612;28;20124;-42
2021/12/29 01:58:06;;;;;;;8.43;5.13;;;10.10;99.90;;;;;;5047222;28;20469;-44
2021/12/29 02:00:34;;;;;;;10.30;6.38;;;10.10;99.90;;;;;;5047213;28;20464;-42
2021/12/29 02:03:00;;;;;;;11.85;6.60;;;10.10;99.90;;;;;;5047956;28;20476;-43
2021/12/29 02:05:25;;;;;;;10.85;6.68;;;10.10;99.90;;;;;;5047060;28;20032;-43
2021/12/29 02:07:51;;;;;;;16.77;7.20;;;10.10;99.90;;;;;;5048318;28;20049;-43
2021/12/29 02:10:18;;;;;;;13.52;7.07;;;10.10;99.90;;;;;;5047255;28;20528;-44
2021/12/29 02:12:43;;;;;;;13.57;7.28;;;10.10;99.90;;;;;;5047848;28;20082;-43
2021/12/29 02:15:11;;;;;;;13.50;7.57;;;10.10;99.90;;;;;;5047905;28;20460;-43
2021/12/29 02:17:37;;;;;;;14.43;7.38;;;10.10;99.90;;;;;;5047137;28;20029;-44
2021/12/29 02:20:08;;;;;;;14.23;7.78;;;10.10;99.90;;;;;;5047458;28;20035;-43
2021/12/29 02:22:40;;;;;;;14.38;7.93;;;10.10;99.90;;;;;;5047281;28;20052;-43
2021/12/29 02:27:55;;;;;;;12.77;7.85;;;10.10;99.90;;;;;;5047779;28;20503;-43
2021/12/29 02:30:24;;;;;;;12.68;7.07;;;10.10;99.90;;;;;;5047912;28;20126;-43
2021/12/29 02:32:55;;;;;;;11.93;6.97;;;10.10;99.90;;;;;;5046660;28;20131;-44
2021/12/29 02:35:22;;;;;;;11.40;6.47;;;10.10;99.90;;;;;;5047501;28;20514;-44
2021/12/29 02:37:48;;;;;;;11.73;6.63;;;10.10;99.90;;;;;;5047635;28;20021;-44
2021/12/29 02:40:13;;;;;;;10.60;6.22;;;10.10;99.90;;;;;;5046837;28;20055;-43
2021/12/29 02:42:41;;;;;;;9.13;5.70;;;10.10;99.90;;;;;;5047491;28;20057;-43
2021/12/29 02:45:14;;;;;;;10.05;5.38;;;10.10;99.90;;;;;;5047386;28;20136;-43
2021/12/29 02:47:40;;;;;;;;;;;10.10;99.90;;;;;;5035832;28;20047;-44
2021/12/29 02:50:06;;;;;;;9.00;5.60;;;10.10;99.90;;;;;;5046998;28;19928;-43
2021/12/29 02:52:31;;;;;;;7.90;5.93;;;10.00;99.90;;;;;;5046565;28;20028;-43
2021/12/29 02:54:57;;;;;;;7.78;5.07;;;10.00;99.90;;;;;;5047001;28;20725;-43
2021/12/29 02:57:23;;;;;;;7.72;4.70;;;10.10;99.90;;;;;;5046948;28;20111;-43
2021/12/29 02:59:48;;;;;;;9.07;5.30;;;10.10;99.90;;;;;;5046638;28;20075;-44
2021/12/29 03:02:14;;;;;;;8.98;5.10;;;10.10;99.90;;;;;;5046980;28;20029;-43
2021/12/29 03:04:39;;;;;;;7.85;4.65;;;10.10;99.90;;;;;;5046988;28;20559;-43
2021/12/29 03:07:05;;;;;;;9.05;5.15;;;10.10;99.90;;;;;;5046215;28;20416;-43
2021/12/29 03:09:30;;;;;;;8.05;5.05;;;10.10;99.90;;;;;;5047082;28;20055;-44
2021/12/29 03:11:56;;;;;;;8.98;4.80;;;10.20;99.90;;;;;;5046275;28;20029;-42
2021/12/29 03:14:22;;;;;;;9.23;5.13;;;10.20;99.90;;;;;;5046045;28;20075;-44
2021/12/29 03:16:52;;;;;;;9.60;5.50;;;10.10;99.90;;;;;;5047013;28;20025;-42
2021/12/29 03:19:18;;;;;;;9.57;5.65;;;10.20;99.90;;;;;;5046907;28;20029;-42
2021/12/29 03:21:47;;;;;;;9.85;5.28;;;10.10;99.90;;;;;;5045987;28;20103;-43
2021/12/29 03:24:14;;;;;;;10.63;5.45;;;10.10;99.90;;;;;;5047176;28;20033;-44
2021/12/29 03:26:43;;;;;;;6.40;4.53;;;10.10;99.90;;;;;;5046253;28;20063;-42
2021/12/29 03:29:08;;;;;;;9.35;4.93;;;10.10;99.90;;;;;;5046567;28;20056;-43
2021/12/29 03:31:37;;;;;;;9.45;4.38;;;10.10;99.90;;;;;;5048620;28;20048;-41
2021/12/29 03:34:03;;;;;;;6.00;3.90;;;10.10;99.90;;;;;;5050616;28;20116;-42
2021/12/29 03:36:29;;;;;;;10.57;4.65;;;10.00;99.90;;;;;;5050278;28;20132;-42
2021/12/29 03:38:54;;;;;;;7.07;3.78;;;10.10;99.90;;;;;;5050300;28;20063;-43
2021/12/29 03:41:20;;;;;;;8.65;3.85;;;10.10;99.90;;;;;;5050609;28;20036;-44
2021/12/29 03:43:47;;;;;;;7.20;3.80;;;10.10;99.90;;;;;;5049655;28;20024;-42
2021/12/29 03:46:14;;;;;;;8.60;3.55;;;10.10;99.90;;;;;;5050966;28;20809;-43
2021/12/29 03:48:42;;;;;;;10.32;4.00;;;10.10;99.90;;;;;;5049543;28;20679;-42
2021/12/29 03:51:08;;;;;;;11.23;3.65;;;10.10;99.90;;;;;;5050190;28;20025;-43
2021/12/29 03:53:34;;;;;;;10.18;4.28;;;10.10;99.90;;;;;;5050389;28;20031;-43
2021/12/29 03:56:00;;;;;;;11.07;4.82;;;10.10;99.90;;;;;;5049698;28;20523;-44
2021/12/29 03:58:28;;;;;;;10.23;4.20;;;10.10;99.90;;;;;;5050356;28;20025;-44
2021/12/29 04:01:00;;;;;;;12.85;5.18;;;10.10;99.90;;;;;;5050175;28;20032;-44
2021/12/29 04:03:26;;;;;;;10.95;4.68;;;10.00;99.90;;;;;;5049551;28;20029;-43
2021/12/29 04:05:52;;;;;;;10.13;4.43;;;10.00;99.90;;;;;;5050352;28;20050;-43
2021/12/29 04:08:20;;;;;;;12.27;5.10;;;10.00;99.90;;;;;;5050210;28;20492;-43
2021/12/29 04:10:46;;;;;;;9.15;4.60;;;10.00;99.90;;;;;;5049075;28;20017;-43
2021/12/29 04:13:11;;;;;;;12.38;4.90;;;10.00;99.90;;;;;;5050332;28;20112;-42
2021/12/29 04:15:38;;;;;;;8.50;4.65;;;10.00;99.90;;;;;;5049712;28;20053;-43
2021/12/29 04:18:14;;;;;;;10.25;4.68;;;10.00;99.90;;;;;;5049453;28;20032;-44
2021/12/29 04:20:57;;;;;;;11.77;5.18;;;10.00;99.90;;;;;;5050061;28;20396;-44
2021/12/29 04:23:25;;;;;;;;;;;10.00;99.90;;;;;;5050159;28;20131;-44
2021/12/29 04:25:53;;;;;;;8.85;4.20;;;10.00;99.90;;;;;;5049138;28;19912;-42
2021/12/29 04:28:22;;;;;;;8.20;4.57;;;10.00;99.90;;;;;;5049954;28;20021;-44
2021/12/29 04:30:50;;;;;;;12.55;4.93;;;10.00;99.90;;;;;;5049466;28;20029;-43
2021/12/29 04:33:16;;;;;;;9.20;4.47;;;10.00;99.90;;;;;;5049868;28;20048;-43
2021/12/29 04:35:42;;;;;;;9.90;4.43;;;10.00;99.90;;;;;;5048075;28;20076;-42
2021/12/29 04:38:07;;;;;;;9.57;4.20;;;10.00;99.90;;;;;;5049560;28;20057;-43
2021/12/29 04:40:36;;;;;;;9.35;4.18;;;10.00;99.90;;;;;;5049417;28;20029;-42
2021/12/29 04:43:02;;;;;;;10.60;4.00;;;10.00;99.90;;;;;;5049548;28;20025;-43
2021/12/29 04:45:28;;;;;;;10.10;4.50;;;10.00;99.90;;;;;;5048760;28;20037;-42
2021/12/29 04:47:53;;;;;;;9.60;3.83;;;10.00;99.90;;;;;;5048853;28;20440;-43
2021/12/29 04:50:37;;;;;;;6.95;3.20;;;10.00;99.90;;;;;;5049428;28;20112;-43
2021/12/29 04:53:03;;;;;;;9.25;3.78;;;10.00;99.90;;;;;;5049261;28;20144;-44
2021/12/29 04:55:30;;;;;;;6.32;3.58;;;10.00;99.90;;;;;;5049085;28;20021;-43
2021/12/29 04:57:58;;;;;;;6.80;3.72;;;10.00;99.90;;;;;;5049383;28;20029;-43
2021/12/29 05:00:25;;;;;;;7.13;3.60;;;10.00;99.90;;;;;;5048185;28;20017;-42
2021/12/29 05:02:52;;;;;;;9.70;4.10;;;10.00;99.90;;;;;;5049363;28;20041;-43
2021/12/29 05:05:22;;;;;;;8.48;4.13;;;10.00;99.90;;;;;;5048983;28;20029;-42
2021/12/29 05:10:33;;;;;;;6.35;3.83;;;9.90;99.90;;;;;;5048958;28;20036;-43
2021/12/29 05:12:59;;;;;;;7.85;3.80;;;10.00;99.90;;;;;;5048838;28;20024;-44
2021/12/29 05:15:25;;;;;;;6.90;4.03;;;10.00;99.90;;;;;;5047895;28;20029;-43
2021/12/29 05:17:50;;;;;;;7.32;4.70;;;10.00;99.90;;;;;;5048722;28;20483;-44
2021/12/29 05:20:16;;;;;;;7.63;4.00;;;10.00;99.90;;;;;;5048300;28;20028;-42
2021/12/29 05:22:41;;;;;;;9.02;4.75;;;9.90;99.90;;;;;;5048669;28;20037;-42
2021/12/29 05:25:07;;;;;;;7.97;4.57;;;10.00;99.90;;;;;;5048491;28;20029;-43
2021/12/29 05:27:32;;;;;;;6.07;4.28;;;10.00;99.90;;;;;;5048099;28;20056;-42
2021/12/29 05:30:02;;;;;;;4.63;3.60;;;10.00;99.90;;;;;;5048756;28;20025;-43
2021/12/29 05:32:30;;;;;;;4.47;3.60;;;10.00;99.90;;;;;;5047926;28;20059;-42
2021/12/29 05:34:56;;;;;;;8.77;4.10;;;10.00;99.90;;;;;;5048644;28;20033;-43
2021/12/29 05:37:22;;;;;;;7.32;3.85;;;10.00;99.90;;;;;;5048093;28;20024;-42
2021/12/29 05:39:47;;;;;;;7.65;4.60;;;10.00;99.90;;;;;;5048219;28;20025;-43
2021/12/29 05:42:13;;;;;;;7.70;4.13;;;10.00;99.90;;;;;;5048034;28;20481;-42
2021/12/29 05:44:38;;;;;;;6.15;4.15;;;10.00;99.90;;;;;;5048275;28;20017;-42
2021/12/29 05:47:04;;;;;;;7.07;4.20;;;10.00;99.90;;;;;;5047773;28;20424;-43
2021/12/29 05:49:29;;;;;;;7.22;4.75;;;10.00;99.90;;;;;;5047407;28;20056;-41
2021/12/29 05:51:55;;;;;;;7.90;6.07;;;10.00;99.90;;;;;;5048213;28;20530;-43
2021/12/29 05:54:20;;;;;;;6.95;6.25;;;9.90;99.90;;;;;;5047965;28;20021;-43
2021/12/29 05:56:46;;;;;;;7.07;6.20;;;10.00;99.90;;;;;;5047950;28;20025;-43
2021/12/29 05:59:11;;;;;;;7.97;6.10;;;9.90;99.90;;;;;;5048519;28;20029;-43
2021/12/29 06:01:37;;;;;;;6.63;5.90;;;9.90;99.90;;;;;;5047700;28;20111;-43
2021/12/29 06:04:03;;;;;;;7.90;5.25;;;10.00;99.90;;;;;;5047605;28;20024;-43
2021/12/29 06:06:28;;;;;;;8.20;6.05;;;10.00;99.90;;;;;;5048528;28;20028;-43
2021/12/29 06:08:54;;;;;;;5.25;4.70;;;9.90;99.90;;;;;;5047542;28;20384;-42
2021/12/29 06:11:19;;;;;;;5.63;5.00;;;9.90;99.90;;;;;;5047917;28;20028;-43
2021/12/29 06:13:45;;;;;;;5.55;5.05;;;9.90;99.90;;;;;;5047560;28;20021;-42
2021/12/29 06:16:10;;;;;;;6.55;5.15;;;10.00;99.90;;;;;;5047928;28;20021;-42
2021/12/29 06:18:36;;;;;;;5.43;4.70;;;9.90;99.90;;;;;;5047352;28;20025;-42
2021/12/29 06:21:02;;;;;;;8.05;5.40;;;10.00;99.90;;;;;;5048228;28;20036;-43
2021/12/29 06:23:27;;;;;;;5.65;4.13;;;9.90;99.90;;;;;;5047387;28;20703;-43
2021/12/29 06:25:53;;;;;;;5.63;4.70;;;10.00;99.90;;;;;;5047021;28;20029;-42
2021/12/29 06:28:18;;;;;;;5.60;4.22;;;10.00;99.90;;;;;;5048043;28;20020;-43
2021/12/29 06:30:44;;;;;;;5.50;3.90;;;10.00;99.90;;;;;;5046873;28;20063;-42
2021/12/29 06:33:09;;;;;;;5.68;3.75;;;10.00;99.90;;;;;;5047441;28;20428;-42
2021/12/29 06:35:35;;;;;;;5.88;3.53;;;10.00;99.90;;;;;;5047414;28;20033;-42
2021/12/29 06:38:01;;;;;;;4.22;3.80;;;10.00;99.90;;;;;;5046880;28;20013;-43
2021/12/29 06:40:26;;;;;;;4.95;3.70;;;9.90;99.90;;;;;;5047479;28;20035;-43
2021/12/29 06:42:52;;;;;;;4.68;3.50;;;9.90;99.90;;;;;;5047035;28;20036;-42
2021/12/29 06:45:17;;;;;;;3.40;3.10;;;9.90;99.90;;;;;;5047263;28;20032;-42
2021/12/29 06:47:43;;;;;;;4.60;3.60;;;9.90;99.90;;;;;;5047390;28;20048;-42
2021/12/29 06:50:09;;;;;;;4.97;3.60;;;9.90;99.90;;;;;;5046586;28;20032;-43
2021/12/29 06:52:35;;;;;;;3.55;3.22;;;9.90;99.90;;;;;;5046877;28;20029;-43
2021/12/29 06:55:01;;;;;;;5.63;3.30;;;9.90;99.90;;;;;;5047539;28;20078;-42
2021/12/29 06:57:26;;;;;;;3.80;3.05;;;9.90;99.90;;;;;;5047270;28;20017;-43
2021/12/29 06:59:52;;;;;;;4.22;3.00;;;9.90;99.90;;;;;;5046370;28;20106;-42
2021/12/29 07:02:18;;;;;;;3.83;3.13;;;10.00;99.90;;;;;;5047428;28;20051;-43
2021/12/29 07:04:44;;;;;;;4.93;3.20;;;9.90;99.90;;;;;;5046774;28;20480;-43
2021/12/29 07:07:12;;;;;;;5.45;3.60;;;9.90;99.90;;;;;;5046122;28;20421;-43
2021/12/29 07:09:38;;;;;;;6.60;3.75;;;9.90;99.90;;;;;;5046964;28;20060;-43
2021/12/29 07:12:04;;;;;;;5.10;3.60;;;9.90;99.90;;;;;;5046893;28;20025;-43
2021/12/29 07:14:30;;;;;;;6.28;4.38;;;9.90;99.90;;;;;;5045643;28;20077;-42
2021/12/29 07:16:55;;;;;;;8.82;5.10;;;9.90;99.90;;;;;;5047165;28;20056;-43
2021/12/29 07:19:21;;;;;;;9.95;5.50;;;9.90;99.90;;;;;;5047027;28;20020;-43
2021/12/29 07:21:48;;;;;;;10.57;5.75;;;9.90;99.90;;;;;;5045890;28;20033;-43
2021/12/29 07:24:13;;;;;;;11.07;5.75;;;9.90;99.90;;;;;;5047472;28;20092;-44
2021/12/29 07:26:40;;;;;;;15.23;6.03;;;9.90;99.90;;;;;;5046005;28;20508;-43
2021/12/29 07:29:06;;;;;;;11.57;6.88;;;9.90;99.90;;;;;;5046133;28;20029;-42
2021/12/29 07:31:32;;;;;;;9.75;6.65;;;9.90;99.90;;;;;;5046926;28;20031;-42
2021/12/29 07:33:59;;;;;;;9.45;5.68;;;9.90;99.90;;;;;;5046395;28;20055;-42
2021/12/29 07:36:24;;;;;;;11.20;5.60;;;9.90;99.90;;;;;;5046680;28;20033;-45
2021/12/29 07:38:50;;;;;;;10.38;6.32;;;9.90;99.90;;;;;;5046372;28;20029;-43
2021/12/29 07:41:16;;;;;;;7.82;5.10;;;9.90;99.90;;;;;;5046264;28;20024;-42
2021/12/29 07:43:42;;;;;;;10.70;5.10;;;9.90;99.90;;;;;;5046491;28;20021;-43
2021/12/29 07:46:08;;;;;;;9.10;5.75;;;9.90;99.90;;;;;;5046609;28;20541;-43
2021/12/29 07:48:34;;;;;;;10.52;6.20;;;9.90;99.90;;;;;;5045893;28;20041;-42
2021/12/29 07:51:02;;;;;;;9.77;6.00;;;9.90;99.90;;;;;;5046445;28;20013;-42
2021/12/29 07:53:28;;;;;;;9.13;5.45;;;9.90;99.90;;;;;;5046769;28;20068;-43
2021/12/29 07:55:53;;;;;;;10.90;6.20;;;9.90;99.90;;;;;;5045709;28;20413;-45
2021/12/29 07:58:25;;;;;;;7.75;4.97;;;9.90;99.90;;;;;;5046795;28;20033;-45
2021/12/29 08:00:51;;;;;;;9.23;5.57;;;9.90;99.90;;;;;;5046154;28;20013;-43
2021/12/29 08:03:17;;;;;;;8.48;5.55;;;9.80;99.90;;;;;;5046048;28;20892;-43
2021/12/29 08:05:43;;;;;;;6.65;5.07;;;9.80;99.90;;;;;;5046431;28;20025;-43
2021/12/29 08:08:09;;;;;;;12.18;6.22;;;9.80;99.90;;;;;;5045971;28;20039;-43
2021/12/29 08:10:38;;;;;;;11.15;6.63;;;9.80;99.90;;;;;;5046036;28;20531;-43
2021/12/29 08:13:05;;;;;;;11.98;6.88;;;9.80;99.90;;;;;;5046418;28;20021;-43
2021/12/29 08:15:32;;;;;;;10.45;6.55;;;9.80;99.90;;;;;;5046150;28;20024;-43
2021/12/29 08:17:58;;;;;;;12.75;7.53;;;9.80;99.90;;;;;;5048492;28;20484;-43
2021/12/29 08:20:24;;;;;;;11.95;7.85;;;9.80;99.90;;;;;;5050268;28;20021;-44
2021/12/29 08:22:52;;;;;;;11.70;8.23;;;9.80;99.90;;;;;;5049639;28;20847;-44
2021/12/29 08:25:17;;;;;;;13.45;8.20;;;9.80;99.90;;;;;;5047719;28;20028;-43
2021/12/29 08:27:43;;;;;;;8.85;7.07;;;9.80;99.90;;;;;;5047972;28;20029;-45
2021/12/29 08:30:12;;;;;;;13.10;8.25;;;9.80;99.90;;;;;;5048790;28;20017;-42
2021/12/29 08:32:41;;;;;;;15.70;8.93;;;9.80;99.90;;;;;;5048994;28;20021;-43
2021/12/29 08:35:07;;;;;;;13.98;8.05;;;9.80;99.90;;;;;;5048436;28;20635;-42
2021/12/29 08:37:33;;;;;;;14.98;8.00;;;9.80;99.90;;;;;;5048125;28;20365;-44
2021/12/29 08:39:58;;;;;;;12.48;7.75;;;9.80;99.90;;;;;;5048911;28;20040;-43
2021/12/29 08:42:24;;;;;;;17.00;8.10;;;9.80;99.90;;;;;;5048411;28;20367;-43
2021/12/29 08:44:50;;;;;;;11.35;7.10;;;9.90;99.90;;;;;;5048657;28;20017;-44
2021/12/29 08:47:16;;;;;;;7.47;5.63;;;9.90;99.90;;;;;;5048590;28;20750;-43
2021/12/29 08:49:41;;;;;;;10.00;7.10;;;9.90;99.90;;;;;;5048726;28;20099;-42
2021/12/29 08:52:07;;;;;;;9.15;7.18;;;10.00;99.90;;;;;;5047478;28;20100;-42
2021/12/29 08:54:34;;;;;;;11.95;7.57;;;10.00;99.90;;;;;;5048889;28;20086;-43
2021/12/29 08:57:01;;;;;;;12.35;6.80;;;10.00;99.90;;;;;;5048398;28;20028;-43
2021/12/29 08:59:26;;;;;;;12.15;7.57;;;10.00;99.90;;;;;;5048050;28;20013;-44
2021/12/29 09:01:52;;;;;;;11.32;6.88;;;10.10;99.90;;;;;;5048885;28;20828;-42
2021/12/29 09:04:17;;;;;;;6.53;5.82;;;10.00;99.90;;;;;;5048603;28;20047;-43
2021/12/29 09:06:43;;;;;;;6.32;5.05;;;10.00;99.90;;;;;;5048084;28;20032;-43
2021/12/29 09:09:09;;;;;;;10.52;6.78;;;10.10;99.90;;;;;;5048197;28;20530;-44
2021/12/29 09:11:34;;;;;;;16.00;6.85;;;10.00;99.90;;;;;;5047914;28;20029;-43
2021/12/29 09:14:00;;;;;;;13.18;7.70;;;10.00;99.90;;;;;;5047634;28;20115;-43
2021/12/29 09:16:28;;;;;;;10.02;7.88;;;10.10;99.90;;;;;;5049212;28;20025;-44
2021/12/29 09:18:54;;;;;;;13.32;7.43;;;10.00;99.90;;;;;;5048476;28;20036;-43
2021/12/29 09:21:20;;;;;;;11.80;7.38;;;10.00;99.90;;;;;;5048596;28;20032;-43
2021/12/29 09:23:46;;;;;;;9.68;6.90;;;10.10;99.90;;;;;;5048563;28;20029;-43
2021/12/29 09:26:14;;;;;;;9.55;6.95;;;10.10;99.90;;;;;;5049031;28;20021;-43
2021/12/29 09:28:41;;;;;;;11.57;6.82;;;10.10;99.90;;;;;;5046571;28;20036;-42
2021/12/29 09:31:07;;;;;;;13.40;7.50;;;10.10;99.90;;;;;;5048653;28;20055;-42
2021/12/29 09:33:33;;;;;;;10.30;7.05;;;10.10;99.90;;;;;;5047453;28;20025;-43
2021/12/29 09:36:01;;;;;;;11.63;7.03;;;10.10;99.90;;;;;;5048354;28;20037;-43
2021/12/29 09:38:28;;;;;;;12.50;7.43;;;10.10;99.90;;;;;;5048918;28;20052;-43
2021/12/29 09:40:54;;;;;;;15.63;6.88;;;10.10;99.90;;;;;;5046427;28;20113;-42
2021/12/29 09:43:20;;;;;;;12.18;6.93;;;10.10;99.90;;;;;;5049333;28;20448;-43
2021/12/29 09:45:47;;;;;;;7.38;5.60;;;10.10;99.90;;;;;;5047708;28;20421;-43
2021/12/29 09:48:14;;;;;;;10.60;7.85;;;10.20;99.90;;;;;;5048238;28;20040;-43
2021/12/29 09:50:41;;;;;;;11.13;7.25;;;10.20;99.90;;;;;;5048291;28;20025;-43
2021/12/29 09:53:08;;;;;;;12.57;6.80;;;10.10;99.90;;;;;;5047914;28;20023;-43
2021/12/29 09:55:34;;;;;;;12.48;8.23;;;10.10;99.90;;;;;;5047144;28;20128;-43
2021/12/29 09:58:01;;;;;;;10.75;8.32;;;10.10;99.90;;;;;;5048192;28;20021;-43
2021/12/29 10:00:37;;;;;;;13.25;8.50;;;10.10;99.90;;;;;;5047925;28;20416;-43
2021/12/29 10:03:07;;;;;;;10.45;7.80;;;10.10;99.90;;;;;;5047393;28;20029;-42
2021/12/29 10:05:33;;;;;;;10.82;8.00;;;10.10;99.90;;;;;;5047757;28;20024;-44
2021/12/29 10:08:15;;;;;;;13.55;8.50;;;10.10;99.90;;;;;;5047552;28;20408;-42
2021/12/29 10:10:50;;;;;;;12.60;8.93;;;10.10;99.90;;;;;;5047260;28;20124;-43
2021/12/29 10:13:17;;;;;;;11.07;8.00;;;10.10;99.90;;;;;;5048270;28;20389;-44
2021/12/29 10:15:52;;;;;;;11.55;8.43;;;10.10;99.90;;;;;;5046847;28;20037;-44
2021/12/29 10:18:25;;;;;;;10.40;7.70;;;10.10;99.90;;;;;;5047866;28;20136;-43
2021/12/29 10:20:55;;;;;;;11.00;8.40;;;10.10;99.90;;;;;;5047671;28;20017;-42
2021/12/29 10:23:25;;;;;;;9.15;8.15;;;10.20;99.90;;;;;;5047423;28;20040;-42
2021/12/29 10:25:52;;;;;;;11.63;7.43;;;10.20;99.90;;;;;;5044343;28;20025;-43
2021/12/29 10:28:25;;;;;;;9.98;7.97;;;10.20;99.90;;;;;;5047587;28;20491;-42
2021/12/29 10:31:01;;;;;;;10.65;8.23;;;10.30;99.90;;;;;;5044685;28;20033;-43
2021/12/29 10:33:36;;;;;;;15.55;8.60;;;10.30;99.90;;;;;;5046059;28;20017;-44
2021/12/29 10:36:12;;;;;;;9.13;7.55;;;10.30;99.90;;;;;;5047165;28;20041;-43
2021/12/29 10:38:37;;;;;;;11.32;7.68;;;10.30;99.90;;;;;;5047454;28;20510;-43
2021/12/29 10:41:04;;;;;;;11.00;7.93;;;10.30;99.90;;;;;;5046289;28;20500;-43
2021/12/29 10:43:30;;;;;;;14.65;8.23;;;10.30;99.90;;;;;;5047125;28;20064;-43
2021/12/29 10:45:57;;;;;;;13.30;9.02;;;10.40;99.90;;;;;;5047123;28;20056;-43
2021/12/29 10:48:29;;;;;;;11.77;9.05;;;10.40;99.90;;;;;;5045951;28;20102;-43
2021/12/29 10:51:05;;;;;;;10.18;8.32;;;10.50;99.90;;;;;;5046243;28;20100;-43
2021/12/29 10:53:33;;;;;;;10.13;8.18;;;10.50;99.90;;;;;;5044486;28;20029;-43
2021/12/29 10:55:58;;;;;;;11.18;8.10;;;10.60;99.90;;;;;;5046864;28;20029;-42
2021/12/29 10:58:27;;;;;;;8.65;6.85;;;10.70;99.90;;;;;;5046453;28;20027;-43
2021/12/29 11:01:11;;;;;;;8.13;6.68;;;10.70;99.90;;;;;;5047374;28;20017;-43
2021/12/29 11:03:48;;;;;;;12.30;8.35;;;10.70;99.90;;;;;;5046595;28;20392;-43
2021/12/29 11:06:16;;;;;;;7.55;6.75;;;10.60;99.90;;;;;;5046481;28;20060;-43
2021/12/29 11:08:51;;;;;;;12.38;8.05;;;10.60;99.90;;;;;;5046934;28;20409;-42
2021/12/29 11:11:18;;;;;;;11.07;8.07;;;10.60;99.90;;;;;;5044011;28;20074;-43
2021/12/29 11:13:44;;;;;;;11.25;8.13;;;10.60;99.90;;;;;;5042932;28;20017;-42
2021/12/29 11:16:10;;;;;;;11.77;8.30;;;10.60;99.90;;;;;;5048052;28;20040;-44
2021/12/29 11:18:51;;;;;;;9.75;6.78;;;10.60;99.90;;;;;;5047683;28;20424;-44
2021/12/29 11:21:32;;;;;;;8.82;6.65;;;10.60;99.90;;;;;;5046289;28;20112;-44
2021/12/29 11:24:11;;;;;;;10.32;6.95;;;10.70;99.90;;;;;;5044829;28;20064;-44
2021/12/29 11:26:37;;;;;;;9.10;6.70;;;10.70;99.90;;;;;;5043847;28;20017;-43
2021/12/29 11:29:07;;;;;;;9.27;7.07;;;10.70;99.90;;;;;;5046336;28;20031;-43
2021/12/29 11:31:39;;;;;;;11.90;8.07;;;10.70;99.90;;;;;;5036234;28;20025;-44
2021/12/29 11:34:25;;;;;;;10.00;8.13;;;10.70;99.90;;;;;;5045299;28;20021;-43
2021/12/29 11:37:10;;;;;;;9.55;8.30;;;10.60;99.90;;;;;;5044250;28;20464;-43
2021/12/29 11:39:42;;;;;;;10.15;7.82;;;10.60;99.90;;;;;;5047029;28;20580;-44
2021/12/29 11:42:08;;;;;;;9.57;8.57;;;10.60;99.90;;;;;;5044451;28;20057;-44
2021/12/29 11:44:34;;;;;;;9.05;7.75;;;10.60;99.90;;;;;;5040610;28;20047;-44
2021/12/29 11:46:59;;;;;;;9.93;8.15;;;10.60;99.90;;;;;;5043702;28;20369;-44
2021/12/29 11:49:25;;;;;;;11.88;8.40;;;10.60;99.90;;;;;;5044533;28;20396;-43
2021/12/29 11:52:01;;;;;;;10.45;8.90;;;10.60;99.90;;;;;;5041312;28;20090;-44
2021/12/29 11:55:05;;;;;;;9.07;8.13;;;10.50;99.90;;;;;;5047172;28;20036;-43
2021/12/29 11:57:32;;;;;;;9.57;8.52;;;10.50;99.90;;;;;;5047411;28;20021;-44
2021/12/29 12:00:11;;;;;;;9.82;8.45;;;10.50;99.90;;;;;;5049028;28;20696;-43
2021/12/29 12:02:38;;;;;;;7.32;6.43;;;10.50;99.90;;;;;;5028577;28;20122;-43
2021/12/29 12:05:04;;;;;;;10.20;8.38;;;10.50;99.90;;;;;;5045259;28;20021;-44
2021/12/29 12:07:29;;;;;;;10.07;8.32;;;10.50;99.90;;;;;;5049845;28;20033;-43
2021/12/29 12:09:59;;;;;;;8.73;7.45;;;10.50;99.90;;;;;;5048950;28;20025;-43
2021/12/29 12:12:36;;;;;;;11.02;8.30;;;10.50;99.90;;;;;;5050208;28;20025;-44
2021/12/29 12:15:06;;;;;;;8.85;7.95;;;10.50;99.90;;;;;;5050160;28;20032;-42
2021/12/29 12:17:32;;;;;;;8.95;7.97;;;10.50;99.90;;;;;;5048176;28;20118;-43
2021/12/29 12:20:14;;;;;;;9.07;7.47;;;10.60;99.90;;;;;;5049589;28;20020;-43
2021/12/29 12:22:43;;;;;;;9.23;8.23;;;10.60;99.90;;;;;;5048660;28;20160;-44
2021/12/29 12:25:09;;;;;;;7.85;6.97;;;10.60;99.90;;;;;;5049445;28;20013;-42
2021/12/29 12:27:38;;;;;;;10.20;8.88;;;10.60;99.90;;;;;;5049566;28;20028;-43
2021/12/29 12:30:25;;;;;;;8.50;7.60;;;10.60;99.90;;;;;;5049304;28;20013;-43
2021/12/29 12:32:57;;;;;;;10.32;8.55;;;10.60;99.90;;;;;;5048911;28;20100;-42
2021/12/29 12:35:37;;;;;;;9.27;8.10;;;10.60;99.90;;;;;;5049441;28;20048;-43
2021/12/29 12:38:27;;;;;;;11.82;8.45;;;10.60;99.90;;;;;;5049353;28;20021;-42
2021/12/29 12:41:15;;;;;;;8.02;7.20;;;10.60;99.90;;;;;;5049419;28;20107;-44
2021/12/29 12:43:58;;;;;;;8.77;7.57;;;10.70;99.90;;;;;;5048680;28;20059;-42
2021/12/29 12:46:42;;;;;;;10.38;7.00;;;10.70;99.90;;;;;;5048993;28;20021;-43
2021/12/29 12:49:20;;;;;;;11.15;8.10;;;10.60;99.90;;;;;;5029368;28;20241;-44
2021/12/29 12:52:02;;;;;;;8.68;7.35;;;10.60;99.90;;;;;;5044907;28;20037;-42
2021/12/29 12:54:33;;;;;;;10.77;8.40;;;10.60;99.90;;;;;;5029085;28;20025;-42
2021/12/29 12:56:59;;;;;;;11.60;9.20;;;10.60;99.90;;;;;;5046048;28;20111;-43